Terminal Aerodrome Forecast
Issued by NWS Grand Forks, ND

Home | Current Version | Previous Version | Graphics & Text | Print | Product List | Glossary On
Versions: 1 2 3 4 5 6 7 8 9 10 11 12 13 14 15 16 17 18
260
FTUS43 KFGF 040226 AAA
TAFFAR
TAF AMD
KFAR 040226Z 0402/0424 17008KT P6SM BKN035
     FM040400 26006KT P6SM BKN030
     FM040700 28007KT 4SM -SN BKN025
     FM041200 29005KT P6SM BKN020=

USA.gov is the U.S. government's official web portal to all federal, state and local government web resources and services.